Time;durP1;ratioP1;P1;durP2;ratioP2;P2;SDS_P1;SDS_P2;PMS_P1;PMS_P2;Temp;Humidity;BMP_temperature;BMP_pressure;BME280_temperature;BME280_humidity;BME280_pressure;Samples;Min_cycle;Max_cycle;Signal;HPM_P1;HPM_P2
2024/03/09 00:01:40;;;;;;;4.43;3.38;;;;;;;3.92;81.43;100877.03;5094136;28;20207;-69
2024/03/09 00:04:11;;;;;;;10.52;4.88;;;;;;;3.82;80.33;100873.69;5093522;28;20240;-69
2024/03/09 00:06:43;;;;;;;10.60;4.93;;;;;;;3.98;79.17;100872.88;5100647;28;20541;-71
2024/03/09 00:09:12;;;;;;;9.57;4.00;;;;;;;4.07;80.73;100874.59;5088766;28;20561;-68
2024/03/09 00:11:43;;;;;;;5.60;3.42;;;;;;;3.75;80.06;100869.94;5092169;28;20183;-68
2024/03/09 00:14:12;;;;;;;13.15;6.25;;;;;;;4.00;81.68;100873.59;5098466;28;20202;-68
2024/03/09 00:16:41;;;;;;;8.52;6.47;;;;;;;3.81;80.43;100876.50;5099994;28;20196;-68
2024/03/09 00:19:14;;;;;;;7.63;4.05;;;;;;;3.70;80.58;100869.56;5106464;28;20221;-68
2024/03/09 00:21:43;;;;;;;9.55;6.28;;;;;;;3.67;81.50;100856.53;5094926;28;20241;-68
2024/03/09 00:24:12;;;;;;;17.02;6.25;;;;;;;3.99;81.10;100857.66;5090123;28;20192;-68
2024/03/09 00:26:42;;;;;;;8.25;5.28;;;;;;;3.67;80.92;100853.84;5095427;28;20202;-68
2024/03/09 00:29:12;;;;;;;8.70;4.30;;;;;;;3.77;83.43;100849.22;5096474;28;20211;-68
2024/03/09 00:31:41;;;;;;;10.45;4.07;;;;;;;3.71;83.31;100855.19;5098860;28;20275;-68
2024/03/09 00:34:12;;;;;;;7.18;3.45;;;;;;;3.58;82.81;100859.31;5097616;28;20187;-67
2024/03/09 00:36:42;;;;;;;2.95;2.75;;;;;;;3.45;83.00;100849.84;5096235;28;20246;-68
2024/03/09 00:39:11;;;;;;;7.80;6.97;;;;;;;3.55;83.82;100848.91;5096533;28;20246;-68
2024/03/09 00:41:42;;;;;;;3.90;3.55;;;;;;;3.84;82.55;100852.91;5093137;28;20574;-68
2024/03/09 00:44:11;;;;;;;14.98;6.45;;;;;;;3.43;82.80;100843.84;5097787;28;20199;-68
2024/03/09 00:46:40;;;;;;;6.05;4.40;;;;;;;3.52;83.65;100834.00;5096878;28;20183;-69
2024/03/09 00:49:10;;;;;;;5.22;4.60;;;;;;;3.39;84.66;100834.41;5096291;28;20203;-69
2024/03/09 00:51:39;;;;;;;6.28;5.63;;;;;;;3.35;84.47;100837.56;5095961;28;20195;-67
2024/03/09 00:54:10;;;;;;;7.57;5.45;;;;;;;3.40;83.58;100836.09;5093146;28;20188;-67
2024/03/09 00:56:39;;;;;;;8.30;5.22;;;;;;;3.50;84.57;100833.31;5100188;28;20252;-67
2024/03/09 00:59:08;;;;;;;9.57;4.30;;;;;;;3.32;85.15;100832.53;5089181;28;20215;-67
2024/03/09 01:01:38;;;;;;;7.60;5.25;;;;;;;3.39;85.18;100823.72;5103143;28;20273;-68
2024/03/09 01:04:09;;;;;;;8.70;4.75;;;;;;;3.39;85.78;100822.88;5106444;28;20260;-66
2024/03/09 01:06:40;;;;;;;8.90;6.78;;;;;;;3.45;84.81;100819.59;5096023;28;20229;-68
2024/03/09 01:09:10;;;;;;;5.30;3.70;;;;;;;3.28;85.50;100813.31;5093672;28;20242;-68
2024/03/09 01:11:39;;;;;;;8.13;5.65;;;;;;;3.10;86.49;100809.81;5102258;28;20198;-68
2024/03/09 01:14:08;;;;;;;9.38;3.38;;;;;;;2.98;86.55;100798.53;5095568;28;20194;-67
2024/03/09 01:16:37;;;;;;;6.60;6.00;;;;;;;2.97;87.32;100804.88;5090915;28;20203;-68
2024/03/09 01:19:06;;;;;;;5.07;2.63;;;;;;;2.96;87.62;100802.34;5099345;28;20271;-68
2024/03/09 01:21:35;;;;;;;16.52;5.72;;;;;;;3.43;88.87;100795.69;5097256;28;20194;-68
2024/03/09 01:24:06;;;;;;;4.80;3.60;;;;;;;3.32;86.42;100795.09;5099342;28;20622;-67
2024/03/09 01:26:35;;;;;;;7.47;5.82;;;;;;;2.94;87.01;100796.34;5086830;28;20268;-67
2024/03/09 01:29:04;;;;;;;8.05;5.80;;;;;;;3.41;86.29;100805.69;5098096;28;20316;-68
2024/03/09 01:31:34;;;;;;;9.23;5.10;;;;;;;3.17;86.31;100802.00;5095174;28;20183;-69
2024/03/09 01:34:05;;;;;;;4.82;4.47;;;;;;;3.23;88.34;100801.41;5092712;28;20190;-69
2024/03/09 01:36:34;;;;;;;7.40;4.30;;;;;;;2.97;87.41;100791.50;5097321;28;20686;-68
2024/03/09 01:39:04;;;;;;;4.82;3.35;;;;;;;2.81;87.92;100791.38;5094528;28;20610;-68
2024/03/09 01:41:34;;;;;;;5.25;4.53;;;;;;;2.69;89.06;100789.09;5100465;28;20185;-67
2024/03/09 01:44:03;;;;;;;10.15;7.18;;;;;;;2.66;89.45;100787.59;5101275;28;20279;-68
2024/03/09 01:46:33;;;;;;;4.00;3.67;;;;;;;2.53;90.03;100785.28;5087960;28;20480;-68
2024/03/09 01:49:02;;;;;;;9.02;7.20;;;;;;;2.69;90.40;100786.44;5109899;28;20209;-67
2024/03/09 01:51:32;;;;;;;6.50;3.60;;;;;;;2.94;90.08;100789.16;5093721;28;20187;-68
2024/03/09 01:54:10;;;;;;;11.77;6.20;;;;;;;3.05;89.69;100788.03;5097238;28;20286;-69
2024/03/09 01:56:41;;;;;;;6.45;4.43;;;;;;;2.76;89.11;100785.66;5091122;28;20197;-68
2024/03/09 01:59:10;;;;;;;3.00;2.70;;;;;;;2.81;89.16;100780.69;5101041;28;20266;-68
2024/03/09 02:01:40;;;;;;;9.70;7.15;;;;;;;2.91;90.03;100781.44;5102179;28;20182;-68
2024/03/09 02:04:09;;;;;;;5.05;4.35;;;;;;;2.94;88.36;100775.81;5094573;28;20205;-68
2024/03/09 02:06:40;;;;;;;6.43;5.20;;;;;;;2.73;89.37;100772.63;5087910;28;20195;-69
2024/03/09 02:09:09;;;;;;;11.90;4.22;;;;;;;2.91;89.16;100773.41;5098464;28;20221;-66
2024/03/09 02:11:42;;;;;;;12.88;4.80;;;;;;;2.72;89.85;100765.59;5091235;28;20687;-68
2024/03/09 02:14:12;;;;;;;4.70;3.47;;;;;;;2.84;90.10;100763.53;5097732;28;20612;-68
2024/03/09 02:16:41;;;;;;;11.05;4.30;;;;;;;2.73;90.23;100758.41;5097106;28;20188;-69
2024/03/09 02:19:13;;;;;;;5.43;3.55;;;;;;;2.56;90.06;100760.13;5090941;28;20214;-68
2024/03/09 02:21:45;;;;;;;4.68;4.28;;;;;;;2.58;90.47;100763.47;5092572;28;20195;-67
2024/03/09 02:24:20;;;;;;;5.22;3.78;;;;;;;2.38;91.98;100753.94;5102917;28;20210;-68
2024/03/09 02:26:52;;;;;;;6.78;4.10;;;;;;;2.30;91.96;100756.53;5095599;28;20194;-68
2024/03/09 02:33:34;;;;;;;7.88;2.75;;;;;;;2.38;91.87;100735.22;5075395;28;20186;-68
2024/03/09 02:36:03;;;;;;;6.55;5.78;;;;;;;2.75;91.85;100749.25;5091285;28;20703;-69
2024/03/09 02:38:32;;;;;;;6.85;6.25;;;;;;;2.38;91.78;100751.25;5088804;28;20563;-68
2024/03/09 02:41:00;;;;;;;3.88;3.38;;;;;;;2.66;91.84;100744.84;5091105;28;20240;-69
2024/03/09 02:43:30;;;;;;;5.57;3.78;;;;;;;3.09;92.35;100735.97;5097038;28;20278;-69
2024/03/09 02:46:01;;;;;;;11.82;3.38;;;;;;;2.58;90.74;100740.25;5093410;28;20199;-68
2024/03/09 02:48:30;;;;;;;8.07;3.85;;;;;;;2.64;91.04;100736.13;5095189;28;20250;-67
2024/03/09 02:51:01;;;;;;;4.47;3.58;;;;;;;2.39;91.52;100736.91;5104779;28;20236;-68
2024/03/09 02:53:33;;;;;;;6.15;5.53;;;;;;;2.28;92.54;100739.81;5094373;28;20239;-68
2024/03/09 02:56:03;;;;;;;12.40;5.82;;;;;;;2.48;92.63;100736.00;5095093;28;20683;-68
2024/03/09 02:58:33;;;;;;;7.80;6.10;;;;;;;2.96;92.89;100731.03;5095355;28;20202;-68
2024/03/09 03:01:02;;;;;;;7.13;5.75;;;;;;;3.10;90.69;100739.47;5093571;28;20753;-67
2024/03/09 03:03:46;;;;;;;3.88;3.15;;;;;;;2.98;89.47;100734.41;5087175;28;20218;-68
2024/03/09 03:06:18;;;;;;;5.93;3.88;;;;;;;2.77;90.06;100733.91;5091240;28;20206;-68
2024/03/09 03:08:49;;;;;;;7.07;4.15;;;;;;;2.47;91.54;100729.00;5090386;28;20242;-68
2024/03/09 03:11:18;;;;;;;3.78;3.47;;;;;;;2.36;92.55;100731.91;5093949;28;20205;-68
2024/03/09 03:13:49;;;;;;;4.90;4.50;;;;;;;2.48;93.35;100733.31;5089981;28;20240;-68
2024/03/09 03:16:25;;;;;;;4.88;4.47;;;;;;;2.53;92.68;100731.03;5094947;28;20186;-67
2024/03/09 03:18:54;;;;;;;16.75;7.05;;;;;;;2.40;94.29;100727.91;5095994;28;20304;-67
2024/03/09 03:22:16;;;;;;;12.85;4.45;;;;;;;2.43;93.37;100727.59;5093885;28;20222;-66
2024/03/09 03:24:45;;;;;;;7.22;6.65;;;;;;;2.05;94.14;100723.41;5088498;28;20256;-68
2024/03/09 03:27:14;;;;;;;3.55;3.25;;;;;;;2.08;94.83;100723.94;5102458;28;20672;-68
2024/03/09 03:29:45;;;;;;;8.93;3.55;;;;;;;2.06;94.97;100719.75;5096300;28;20240;-67
2024/03/09 03:32:15;;;;;;;5.65;4.43;;;;;;;1.86;95.87;100712.88;5092561;28;20237;-69
2024/03/09 03:34:44;;;;;;;4.75;4.35;;;;;;;1.78;96.30;100715.47;5094041;28;20182;-68
2024/03/09 03:37:13;;;;;;;4.78;4.35;;;;;;;1.67;97.04;100720.00;5094179;28;20243;-67
2024/03/09 03:39:42;;;;;;;6.80;3.70;;;;;;;1.55;97.94;100709.69;5094081;28;20222;-66
2024/03/09 03:42:12;;;;;;;5.68;4.82;;;;;;;1.67;97.94;100711.16;5097768;28;20194;-67
2024/03/09 03:44:41;;;;;;;6.40;3.92;;;;;;;1.71;97.45;100704.53;5091134;28;20244;-68
2024/03/09 03:47:13;;;;;;;5.88;4.75;;;;;;;1.69;98.29;100701.19;5094354;28;20200;-69
2024/03/09 03:49:42;;;;;;;4.63;2.78;;;;;;;1.54;98.47;100700.88;5097718;28;20210;-68
2024/03/09 03:52:11;;;;;;;8.18;2.60;;;;;;;1.52;98.90;100704.66;5091545;28;20569;-68
2024/03/09 03:54:39;;;;;;;4.07;2.53;;;;;;;1.59;98.79;100706.59;5092670;28;20263;-68
2024/03/09 03:57:11;;;;;;;10.75;6.00;;;;;;;1.63;98.58;100705.28;5092748;28;20193;-68
2024/03/09 03:59:40;;;;;;;4.18;3.88;;;;;;;1.76;98.99;100696.94;5093245;28;20703;-67
2024/03/09 04:02:10;;;;;;;11.25;6.32;;;;;;;1.79;98.60;100701.13;5093377;28;20610;-68
2024/03/09 04:04:41;;;;;;;4.70;3.25;;;;;;;1.74;97.69;100697.06;5093842;28;20207;-67
2024/03/09 04:07:09;;;;;;;6.25;5.88;;;;;;;1.53;98.39;100687.66;5106109;28;20221;-69
2024/03/09 04:09:39;;;;;;;10.48;6.15;;;;;;;1.44;99.21;100685.91;5088097;28;20240;-67
2024/03/09 04:12:09;;;;;;;3.10;2.53;;;;;;;1.39;99.60;100682.84;5099975;28;20570;-67
2024/03/09 04:14:37;;;;;;;3.92;3.63;;;;;;;1.56;99.63;100690.88;5095923;28;20657;-67
2024/03/09 04:17:06;;;;;;;8.50;4.97;;;;;;;1.54;99.40;100678.69;5092747;28;20188;-67
2024/03/09 04:19:36;;;;;;;17.02;6.00;;;;;;;1.38;100.00;100675.81;5092428;28;20578;-68
2024/03/09 04:22:08;;;;;;;7.57;5.28;;;;;;;1.30;100.00;100669.41;5097989;28;20289;-67
2024/03/09 04:24:38;;;;;;;14.80;7.10;;;;;;;1.30;100.00;100665.91;5099968;28;20215;-68
2024/03/09 04:27:10;;;;;;;6.85;5.18;;;;;;;1.60;100.00;100675.41;5077320;28;20192;-66
2024/03/09 04:29:39;;;;;;;3.90;3.70;;;;;;;1.64;100.00;100672.31;5092809;28;20222;-67
2024/03/09 04:32:09;;;;;;;5.25;3.22;;;;;;;1.51;100.00;100660.28;5087735;28;20556;-67
2024/03/09 04:34:40;;;;;;;6.90;4.93;;;;;;;1.78;100.00;100646.94;5101136;28;20598;-68
2024/03/09 04:37:10;;;;;;;10.40;4.53;;;;;;;1.50;99.60;100659.44;5087434;28;20249;-68
2024/03/09 04:39:43;;;;;;;11.48;8.05;;;;;;;1.57;100.00;100649.03;5090726;28;20224;-69
2024/03/09 04:42:13;;;;;;;7.10;5.55;;;;;;;1.50;100.00;100643.44;5092596;28;20195;-68
2024/03/09 04:44:41;;;;;;;4.90;3.88;;;;;;;1.65;100.00;100649.13;5091728;28;20561;-68
2024/03/09 04:47:10;;;;;;;7.10;6.32;;;;;;;1.51;100.00;100638.97;5087261;28;20288;-69
2024/03/09 04:49:39;;;;;;;4.72;3.70;;;;;;;1.37;100.00;100642.13;5092805;28;20223;-68
2024/03/09 04:52:12;;;;;;;7.95;5.45;;;;;;;1.26;100.00;100640.50;5099205;28;20700;-67
2024/03/09 04:54:44;;;;;;;13.48;7.72;;;;;;;1.35;100.00;100644.13;5099295;28;20207;-67
2024/03/09 04:57:17;;;;;;;12.70;6.65;;;;;;;1.35;100.00;100638.81;5090770;28;20281;-67
2024/03/09 04:59:45;;;;;;;4.25;3.55;;;;;;;1.17;100.00;100630.75;5089962;28;20225;-67
2024/03/09 05:02:14;;;;;;;9.07;6.50;;;;;;;1.27;100.00;100629.69;5100153;28;20188;-67
2024/03/09 05:04:43;;;;;;;5.40;4.57;;;;;;;1.28;100.00;100634.06;5092452;28;20201;-68
2024/03/09 05:07:13;;;;;;;9.95;3.45;;;;;;;1.11;100.00;100637.53;5102466;28;20183;-69
2024/03/09 05:09:41;;;;;;;2.88;2.67;;;;;;;1.25;100.00;100631.69;5096071;28;20232;-67
2024/03/09 05:12:10;;;;;;;9.02;5.10;;;;;;;1.35;100.00;100628.97;5091981;28;20193;-68
2024/03/09 05:14:39;;;;;;;6.13;5.28;;;;;;;1.47;100.00;100630.44;5088254;28;20184;-67
2024/03/09 05:17:08;;;;;;;7.25;5.07;;;;;;;1.27;100.00;100627.03;5104693;28;20245;-67
2024/03/09 05:19:37;;;;;;;3.75;3.55;;;;;;;1.28;100.00;100623.38;5095419;28;20714;-67
2024/03/09 05:22:06;;;;;;;4.65;3.63;;;;;;;1.15;100.00;100620.25;5104931;28;20201;-67
2024/03/09 05:24:36;;;;;;;9.98;6.03;;;;;;;1.54;100.00;100625.34;5094480;28;20283;-67
2024/03/09 05:27:07;;;;;;;6.65;4.03;;;;;;;1.32;100.00;100629.25;5087612;28;20208;-67
2024/03/09 05:29:36;;;;;;;5.45;5.05;;;;;;;1.22;100.00;100633.81;5086263;28;20224;-68
2024/03/09 05:32:05;;;;;;;6.38;4.93;;;;;;;1.20;100.00;100623.31;5093619;28;20198;-68
2024/03/09 05:34:36;;;;;;;9.15;4.78;;;;;;;1.18;100.00;100613.75;5087702;28;20188;-69
2024/03/09 05:37:06;;;;;;;7.13;4.68;;;;;;;1.26;100.00;100627.19;5095431;28;20228;-66
2024/03/09 05:39:37;;;;;;;3.92;3.60;;;;;;;1.14;100.00;100615.91;5095669;28;20209;-68
2024/03/09 05:42:06;;;;;;;2.80;2.50;;;;;;;1.25;100.00;100621.03;5100498;28;20187;-66
2024/03/09 05:44:35;;;;;;;15.40;6.63;;;;;;;1.35;100.00;100620.13;5101937;28;20209;-68
2024/03/09 05:47:04;;;;;;;6.32;5.78;;;;;;;1.16;100.00;100627.22;5098138;28;20568;-67
2024/03/09 05:49:33;;;;;;;13.95;7.05;;;;;;;1.16;100.00;100616.56;5090828;28;20242;-68
2024/03/09 05:52:02;;;;;;;7.10;3.47;;;;;;;1.25;100.00;100623.69;5098958;28;20215;-67
2024/03/09 05:54:33;;;;;;;3.40;3.20;;;;;;;1.32;100.00;100610.59;5086745;28;20192;-68
2024/03/09 05:57:04;;;;;;;6.97;6.38;;;;;;;1.44;100.00;100616.56;5095079;28;20505;-68
2024/03/09 05:59:33;;;;;;;6.45;5.95;;;;;;;1.28;100.00;100612.72;5094965;28;20255;-69
2024/03/09 06:02:02;;;;;;;3.45;3.13;;;;;;;1.38;100.00;100612.66;5094856;28;20200;-69
2024/03/09 06:04:32;;;;;;;8.23;5.85;;;;;;;1.34;100.00;100616.63;5095217;28;20269;-68
2024/03/09 06:07:01;;;;;;;7.75;6.20;;;;;;;1.35;100.00;100620.13;5081509;28;20708;-68
2024/03/09 06:09:30;;;;;;;9.45;4.93;;;;;;;1.54;100.00;100609.34;5097939;28;20216;-68
2024/03/09 06:11:59;;;;;;;9.80;7.32;;;;;;;1.47;100.00;100618.94;5100078;28;20207;-69
2024/03/09 06:14:29;;;;;;;10.85;4.90;;;;;;;1.51;100.00;100610.47;5097705;28;20221;-70
2024/03/09 06:16:58;;;;;;;4.72;2.65;;;;;;;1.58;100.00;100608.88;5106270;28;20204;-69
2024/03/09 06:19:27;;;;;;;5.13;3.55;;;;;;;1.72;100.00;100610.19;5100749;28;20691;-69
2024/03/09 06:21:56;;;;;;;7.35;4.30;;;;;;;1.85;100.00;100609.78;5091565;28;20198;-69
2024/03/09 06:24:29;;;;;;;9.68;5.65;;;;;;;1.72;100.00;100604.84;5102071;28;20233;-69
2024/03/09 06:26:58;;;;;;;8.02;7.30;;;;;;;1.91;100.00;100598.50;5090756;28;20208;-68
2024/03/09 06:29:29;;;;;;;5.60;4.47;;;;;;;1.75;100.00;100601.88;5091926;28;20221;-70
2024/03/09 06:31:57;;;;;;;5.07;4.28;;;;;;;1.75;100.00;100609.88;5094365;28;20622;-69
2024/03/09 06:34:26;;;;;;;4.53;4.13;;;;;;;1.90;100.00;100618.19;5095032;28;20190;-68
2024/03/09 06:36:55;;;;;;;4.47;4.20;;;;;;;1.82;100.00;100604.78;5096324;28;20212;-68
2024/03/09 06:39:25;;;;;;;7.68;6.97;;;;;;;1.90;100.00;100608.34;5093343;28;20249;-69
2024/03/09 06:41:54;;;;;;;6.82;5.28;;;;;;;2.09;99.79;100610.84;5099209;28;20186;-68
2024/03/09 06:44:23;;;;;;;8.25;7.20;;;;;;;1.97;100.00;100609.44;5089069;28;20630;-69
2024/03/09 06:46:53;;;;;;;5.28;4.88;;;;;;;2.17;99.70;100610.09;5095524;28;20744;-67
2024/03/09 06:49:22;;;;;;;17.20;6.90;;;;;;;2.18;99.26;100612.59;5089127;28;20213;-67
2024/03/09 06:51:50;;;;;;;9.10;6.60;;;;;;;2.12;99.53;100607.88;5099322;28;20190;-67
2024/03/09 06:54:19;;;;;;;19.70;4.75;;;;;;;2.30;99.00;100612.34;5096609;28;20221;-67
2024/03/09 06:56:49;;;;;;;8.57;4.55;;;;;;;2.28;98.45;100614.31;5092488;28;20190;-68
2024/03/09 06:59:18;;;;;;;8.18;4.43;;;;;;;2.24;98.97;100604.94;5101507;28;20212;-68
2024/03/09 07:01:46;;;;;;;20.65;5.20;;;;;;;2.33;98.71;100606.69;5097964;28;20236;-68
2024/03/09 07:04:18;;;;;;;15.40;5.93;;;;;;;2.27;98.50;100610.00;5093673;28;20680;-67
2024/03/09 07:06:47;;;;;;;6.65;4.30;;;;;;;2.35;98.71;100604.72;5093751;28;20198;-68
2024/03/09 07:09:17;;;;;;;13.68;6.45;;;;;;;2.38;98.07;100602.56;5093833;28;20221;-68
2024/03/09 07:11:45;;;;;;;8.48;6.30;;;;;;;2.49;97.00;100599.63;5103232;28;20190;-68
2024/03/09 07:14:14;;;;;;;15.52;9.00;;;;;;;2.56;97.03;100597.19;5093644;28;20217;-68
2024/03/09 07:16:43;;;;;;;8.23;3.50;;;;;;;2.59;96.68;100596.84;5075328;28;20190;-68
2024/03/09 07:19:13;;;;;;;5.38;4.88;;;;;;;2.98;96.00;100600.75;5088898;28;20711;-68
2024/03/09 07:21:44;;;;;;;10.00;6.00;;;;;;;2.94;95.39;100596.72;5101489;28;20611;-68
2024/03/09 07:24:14;;;;;;;17.73;5.70;;;;;;;3.11;94.47;100594.09;5094507;28;20180;-68
2024/03/09 07:26:42;;;;;;;7.50;6.80;;;;;;;3.05;94.33;100585.72;5095775;28;20197;-68
2024/03/09 07:29:11;;;;;;;5.57;5.07;;;;;;;3.18;93.24;100587.13;5103993;28;20214;-67
2024/03/09 07:31:40;;;;;;;12.63;6.63;;;;;;;3.73;91.76;100588.22;5093156;28;20222;-67
2024/03/09 07:34:09;;;;;;;8.90;6.35;;;;;;;3.81;89.88;100582.06;5094084;28;20198;-68
2024/03/09 07:36:39;;;;;;;7.97;5.65;;;;;;;3.62;89.96;100583.22;5093520;28;20624;-68
2024/03/09 07:39:15;;;;;;;14.30;6.32;;;;;;;3.64;90.46;100569.66;5100621;28;20582;-67
2024/03/09 07:41:44;;;;;;;17.75;8.43;;;;;;;3.63;90.09;100573.34;5101467;28;20604;-67
2024/03/09 07:44:13;;;;;;;14.52;7.63;;;;;;;3.65;90.54;100582.88;5082361;28;20293;-67
2024/03/09 07:46:41;;;;;;;28.48;7.68;;;;;;;3.66;90.38;100571.19;5093835;28;20202;-68
2024/03/09 07:49:13;;;;;;;8.63;5.07;;;;;;;3.87;92.00;100579.53;5095291;28;20219;-69
2024/03/09 07:51:42;;;;;;;9.05;5.05;;;;;;;3.87;89.54;100576.88;5082832;28;20197;-69
2024/03/09 07:54:12;;;;;;;8.27;6.38;;;;;;;3.87;89.38;100587.56;5092867;28;20226;-68
2024/03/09 07:56:41;;;;;;;12.02;8.10;;;;;;;3.89;88.98;100590.94;5088756;28;20183;-68
2024/03/09 07:59:11;;;;;;;22.40;6.75;;;;;;;3.99;88.97;100587.25;5090462;28;20223;-68
2024/03/09 08:01:41;;;;;;;9.35;4.95;;;;;;;4.34;88.09;100579.72;5092921;28;20194;-67
2024/03/09 08:04:10;;;;;;;14.88;6.13;;;;;;;4.50;86.82;100573.50;5099619;28;20187;-66
2024/03/09 08:06:40;;;;;;;6.80;5.03;;;;;;;4.63;86.13;100589.03;5096353;28;20199;-68
2024/03/09 08:09:13;;;;;;;11.50;7.90;;;;;;;4.87;85.96;100585.44;5096568;28;20586;-67
2024/03/09 08:11:43;;;;;;;20.60;8.32;;;;;;;4.88;84.74;100581.75;5096307;28;20186;-68
2024/03/09 08:14:12;;;;;;;14.20;9.80;;;;;;;4.94;83.91;100575.72;5096320;28;20679;-67
2024/03/09 08:16:41;;;;;;;12.57;5.93;;;;;;;5.13;83.82;100580.66;5097197;28;20219;-68
2024/03/09 08:19:09;;;;;;;4.50;4.13;;;;;;;5.30;82.84;100576.03;5091705;28;20693;-69
2024/03/09 08:21:38;;;;;;;15.10;5.20;;;;;;;5.37;81.34;100567.13;5086682;28;20218;-69
2024/03/09 08:24:07;;;;;;;14.68;6.70;;;;;;;5.29;81.71;100564.47;5094590;28;20195;-68
2024/03/09 08:26:36;;;;;;;8.18;6.40;;;;;;;5.27;81.04;100568.34;5094946;28;20299;-69
2024/03/09 08:29:08;;;;;;;15.93;5.28;;;;;;;5.54;81.55;100557.09;5093970;28;20215;-68
2024/03/09 08:31:39;;;;;;;9.65;7.32;;;;;;;5.81;78.87;100551.19;5099103;28;20733;-66
2024/03/09 08:34:09;;;;;;;6.45;5.97;;;;;;;5.64;79.14;100546.97;5090823;28;20562;-68
2024/03/09 08:36:38;;;;;;;12.13;5.47;;;;;;;5.74;78.70;100530.63;5092416;28;20194;-67
2024/03/09 08:39:11;;;;;;;9.82;6.35;;;;;;;5.67;78.42;100541.22;5084614;28;20647;-69
2024/03/09 08:41:40;;;;;;;10.75;5.78;;;;;;;5.84;78.92;100526.69;5094230;28;20252;-68
2024/03/09 08:44:11;;;;;;;13.32;6.25;;;;;;;6.08;77.99;100526.50;5092981;28;20183;-68
2024/03/09 08:46:40;;;;;;;5.22;4.43;;;;;;;6.01;77.44;100516.66;5096709;28;20194;-69
2024/03/09 08:49:08;;;;;;;11.52;6.65;;;;;;;5.96;77.97;100519.06;5091195;28;20207;-67
2024/03/09 08:51:38;;;;;;;10.43;6.93;;;;;;;6.18;77.77;100515.50;5090098;28;20645;-68
2024/03/09 08:54:08;;;;;;;18.40;7.57;;;;;;;6.44;76.49;100513.19;5102216;28;20599;-67
2024/03/09 08:56:36;;;;;;;12.73;10.30;;;;;;;6.58;75.13;100508.03;5098906;28;20180;-67
2024/03/09 08:59:05;;;;;;;10.13;5.05;;;;;;;6.48;74.85;100506.47;5096629;28;20223;-67
2024/03/09 09:01:35;;;;;;;12.25;5.70;;;;;;;6.75;74.46;100498.75;5094062;28;20604;-68
2024/03/09 09:04:05;;;;;;;8.20;7.25;;;;;;;6.76;73.69;100498.56;5103701;28;20263;-68
2024/03/09 09:06:34;;;;;;;14.88;7.72;;;;;;;6.72;73.94;100491.06;5103839;28;20211;-68
2024/03/09 09:09:09;;;;;;;12.05;6.78;;;;;;;7.21;73.00;100499.31;5093520;28;20207;-69
2024/03/09 09:11:38;;;;;;;15.18;5.63;;;;;;;7.22;71.95;100491.03;5104513;28;20601;-68
2024/03/09 09:14:08;;;;;;;13.00;7.40;;;;;;;7.17;72.15;100493.47;5104464;28;20253;-69
2024/03/09 09:16:39;;;;;;;13.13;7.03;;;;;;;7.21;71.79;100494.75;5100134;28;20271;-68
2024/03/09 09:19:07;;;;;;;12.68;4.57;;;;;;;7.15;71.87;100484.75;5092502;28;20226;-68
2024/03/09 09:21:36;;;;;;;15.63;9.25;;;;;;;7.25;71.64;100490.66;5095597;28;20195;-66
2024/03/09 09:24:05;;;;;;;18.58;6.90;;;;;;;7.26;71.34;100481.56;5101155;28;20215;-70
2024/03/09 09:26:34;;;;;;;10.00;5.15;;;;;;;7.32;71.60;100480.78;5090379;28;20616;-66
2024/03/09 09:29:04;;;;;;;10.90;6.20;;;;;;;7.33;71.62;100476.25;5105748;28;20223;-68
2024/03/09 09:31:33;;;;;;;7.13;6.25;;;;;;;7.63;70.17;100479.66;5087446;28;20282;-67
2024/03/09 09:34:03;;;;;;;19.00;8.07;;;;;;;7.71;69.88;100484.91;5095244;28;20619;-68
2024/03/09 09:36:32;;;;;;;8.15;5.03;;;;;;;7.94;69.08;100468.53;5101344;28;20186;-70
2024/03/09 09:39:01;;;;;;;12.48;7.80;;;;;;;7.77;68.47;100465.28;5094945;28;20219;-68
2024/03/09 09:41:31;;;;;;;15.70;7.85;;;;;;;7.85;68.91;100465.13;5088043;28;20183;-68
2024/03/09 09:44:08;;;;;;;10.23;6.25;;;;;;;7.93;68.32;100456.09;5093771;28;20208;-68
2024/03/09 09:46:37;;;;;;;9.80;5.13;;;;;;;7.80;69.24;100451.41;5092669;28;20259;-69
2024/03/09 09:49:08;;;;;;;20.65;7.85;;;;;;;7.70;69.18;100450.91;5094007;28;20273;-69
2024/03/09 09:51:38;;;;;;;9.35;6.15;;;;;;;7.80;69.54;100451.41;5092021;28;20565;-69
2024/03/09 09:54:07;;;;;;;13.43;5.75;;;;;;;7.70;69.73;100445.53;5094729;28;20626;-68
2024/03/09 09:56:36;;;;;;;12.73;6.70;;;;;;;7.81;69.10;100450.38;5093267;28;20563;-68
2024/03/09 09:59:05;;;;;;;22.35;8.10;;;;;;;8.02;68.05;100439.56;5091155;28;20234;-67
2024/03/09 10:01:34;;;;;;;11.73;5.80;;;;;;;8.18;67.11;100439.25;5089533;28;20191;-67
2024/03/09 10:04:05;;;;;;;15.52;7.53;;;;;;;8.21;67.28;100427.25;5099867;28;20187;-67
2024/03/09 10:06:34;;;;;;;11.30;8.38;;;;;;;8.50;65.81;100428.91;5095682;28;20653;-68
2024/03/09 10:09:03;;;;;;;8.52;4.53;;;;;;;8.36;66.07;100422.63;5088381;28;20632;-67
2024/03/09 10:11:33;;;;;;;8.52;5.18;;;;;;;8.20;66.63;100420.19;5092309;28;20201;-66
2024/03/09 10:14:04;;;;;;;13.95;7.70;;;;;;;8.27;66.29;100424.63;5098224;28;20266;-68
2024/03/09 10:16:39;;;;;;;8.50;5.88;;;;;;;8.48;66.05;100425.56;5089237;28;20589;-66
2024/03/09 10:19:10;;;;;;;12.25;7.30;;;;;;;8.47;66.09;100432.00;5095230;28;20293;-67
2024/03/09 10:21:38;;;;;;;14.77;6.20;;;;;;;8.47;66.23;100423.91;5087471;28;20219;-69
2024/03/09 10:24:09;;;;;;;7.60;5.05;;;;;;;8.47;65.72;100423.91;5092085;28;20191;-66
2024/03/09 10:26:37;;;;;;;17.02;7.75;;;;;;;8.26;66.72;100417.56;5085775;28;20187;-69
2024/03/09 10:29:07;;;;;;;14.32;7.03;;;;;;;8.31;66.98;100425.06;5093571;28;20207;-67
2024/03/09 10:31:39;;;;;;;16.33;6.78;;;;;;;8.78;65.54;100426.13;5090699;28;20296;-67
2024/03/09 10:34:10;;;;;;;11.90;6.43;;;;;;;8.98;64.70;100427.84;5084846;28;20195;-67
2024/03/09 10:36:43;;;;;;;9.60;5.35;;;;;;;9.10;63.34;100417.31;5088448;28;20192;-68
2024/03/09 10:39:19;;;;;;;8.80;7.88;;;;;;;9.22;63.19;100412.97;5081099;28;20231;-68
2024/03/09 10:41:53;;;;;;;13.95;7.80;;;;;;;9.41;62.50;100405.91;5105518;28;20195;-69
2024/03/09 10:44:24;;;;;;;11.20;7.05;;;;;;;9.48;61.93;100401.38;5095778;28;20198;-68
2024/03/09 10:46:57;;;;;;;12.35;6.57;;;;;;;9.59;61.85;100398.84;5092977;28;20257;-68
2024/03/09 10:49:30;;;;;;;14.73;9.82;;;;;;;9.60;61.22;100397.00;5093766;28;20296;-68
2024/03/09 10:52:03;;;;;;;24.17;8.88;;;;;;;9.64;61.16;100403.63;5092503;28;20250;-70
2024/03/09 10:54:43;;;;;;;18.55;6.53;;;;;;;9.37;61.58;100388.47;5096568;28;20618;-69
2024/03/09 10:57:21;;;;;;;8.50;7.60;;;;;;;9.41;60.58;100387.84;5091930;28;20204;-68
2024/03/09 10:59:52;;;;;;;12.68;8.07;;;;;;;9.65;59.76;100382.88;5089210;28;20216;-69
2024/03/09 11:02:22;;;;;;;8.27;7.30;;;;;;;9.92;59.61;100382.63;5094364;28;20234;-69
2024/03/09 11:04:53;;;;;;;8.68;5.80;;;;;;;10.08;58.59;100377.81;5089906;28;20199;-68
2024/03/09 11:07:22;;;;;;;12.27;6.90;;;;;;;10.10;58.09;100371.16;5097911;28;20257;-70
2024/03/09 11:09:53;;;;;;;13.40;5.93;;;;;;;10.10;58.38;100364.94;5088818;28;20442;-69
2024/03/09 11:12:23;;;;;;;8.57;5.73;;;;;;;9.97;58.65;100360.41;5088985;28;20437;-68
2024/03/09 11:14:52;;;;;;;10.68;6.43;;;;;;;10.09;58.34;100357.84;5097255;28;20429;-69
2024/03/09 11:17:23;;;;;;;11.83;7.30;;;;;;;10.05;58.28;100357.47;5091789;28;20275;-68
2024/03/09 11:19:59;;;;;;;10.05;5.88;;;;;;;10.20;57.94;100354.53;5084893;28;20421;-68
2024/03/09 11:22:40;;;;;;;8.13;6.43;;;;;;;10.36;57.30;100354.88;5086001;28;20270;-69
2024/03/09 11:25:11;;;;;;;15.83;8.20;;;;;;;10.49;57.71;100359.44;5087307;28;20194;-69
2024/03/09 11:27:41;;;;;;;8.90;4.40;;;;;;;10.41;56.83;100356.94;5093412;28;20484;-68
2024/03/09 11:30:13;;;;;;;12.67;6.10;;;;;;;10.26;57.67;100351.00;5089512;28;20460;-68
2024/03/09 11:32:42;;;;;;;15.93;6.17;;;;;;;10.23;57.90;100348.69;5095397;28;20464;-67
2024/03/09 11:35:36;;;;;;;13.90;9.13;;;;;;;10.38;57.48;100341.16;5100379;28;20424;-68
2024/03/09 11:38:16;;;;;;;8.87;5.33;;;;;;;10.30;57.01;100338.69;5079929;28;20452;-68
2024/03/09 11:40:46;;;;;;;18.70;8.00;;;;;;;10.24;57.71;100336.84;5086075;28;20931;-68
2024/03/09 11:43:15;;;;;;;11.10;5.77;;;;;;;10.09;57.81;100333.53;5091490;28;20468;-67
2024/03/09 11:45:45;;;;;;;7.70;5.27;;;;;;;10.31;57.98;100332.25;5091293;28;20448;-66
2024/03/09 11:48:14;;;;;;;9.67;4.87;;;;;;;10.10;59.05;100329.78;5087721;28;20438;-69